sensor_id;sensor_type;location;lat;lon;timestamp;temperature;humidity
3208;DHT22;1616;52.394;9.756;2023-09-18T00:01:28;20.70;99.90
3208;DHT22;1616;52.394;9.756;2023-09-18T00:03:54;20.60;99.90
3208;DHT22;1616;52.394;9.756;2023-09-18T00:06:19;20.70;99.90
3208;DHT22;1616;52.394;9.756;2023-09-18T00:08:45;20.60;99.90
3208;DHT22;1616;52.394;9.756;2023-09-18T00:11:10;20.50;99.90
3208;DHT22;1616;52.394;9.756;2023-09-18T00:13:37;20.50;99.90
3208;DHT22;1616;52.394;9.756;2023-09-18T00:16:03;20.40;99.90
3208;DHT22;1616;52.394;9.756;2023-09-18T00:18:29;20.30;99.90
3208;DHT22;1616;52.394;9.756;2023-09-18T00:20:54;20.40;99.90
3208;DHT22;1616;52.394;9.756;2023-09-18T00:23:20;20.30;99.90
3208;DHT22;1616;52.394;9.756;2023-09-18T00:25:46;20.30;99.90
3208;DHT22;1616;52.394;9.756;2023-09-18T00:28:11;20.40;99.90
3208;DHT22;1616;52.394;9.756;2023-09-18T00:30:39;20.40;99.90
3208;DHT22;1616;52.394;9.756;2023-09-18T00:33:08;20.50;99.90
3208;DHT22;1616;52.394;9.756;2023-09-18T00:35:33;20.50;99.90
3208;DHT22;1616;52.394;9.756;2023-09-18T00:37:59;20.60;99.90
3208;DHT22;1616;52.394;9.756;2023-09-18T00:40:27;20.60;99.90
3208;DHT22;1616;52.394;9.756;2023-09-18T00:42:53;20.50;99.90
3208;DHT22;1616;52.394;9.756;2023-09-18T00:45:18;20.50;99.90
3208;DHT22;1616;52.394;9.756;2023-09-18T00:47:45;20.50;99.90
3208;DHT22;1616;52.394;9.756;2023-09-18T00:50:12;20.50;99.90
3208;DHT22;1616;52.394;9.756;2023-09-18T00:52:38;20.40;99.90
3208;DHT22;1616;52.394;9.756;2023-09-18T00:55:06;20.40;99.90
3208;DHT22;1616;52.394;9.756;2023-09-18T00:57:32;20.40;99.90
3208;DHT22;1616;52.394;9.756;2023-09-18T00:59:58;20.30;99.90
3208;DHT22;1616;52.394;9.756;2023-09-18T01:02:24;20.30;99.90
3208;DHT22;1616;52.394;9.756;2023-09-18T01:04:50;20.20;99.90
3208;DHT22;1616;52.394;9.756;2023-09-18T01:07:15;20.20;99.90
3208;DHT22;1616;52.394;9.756;2023-09-18T01:09:41;20.20;99.90
3208;DHT22;1616;52.394;9.756;2023-09-18T01:15:05;20.20;99.90
3208;DHT22;1616;52.394;9.756;2023-09-18T01:17:35;20.20;99.90
3208;DHT22;1616;52.394;9.756;2023-09-18T01:20:04;20.30;99.90
3208;DHT22;1616;52.394;9.756;2023-09-18T01:22:31;20.30;99.90
3208;DHT22;1616;52.394;9.756;2023-09-18T01:24:57;20.30;99.90
3208;DHT22;1616;52.394;9.756;2023-09-18T01:27:23;20.40;99.90
3208;DHT22;1616;52.394;9.756;2023-09-18T01:29:49;20.40;99.90
3208;DHT22;1616;52.394;9.756;2023-09-18T01:32:15;20.40;99.90
3208;DHT22;1616;52.394;9.756;2023-09-18T01:34:48;20.40;99.90
3208;DHT22;1616;52.394;9.756;2023-09-18T01:37:19;20.40;99.90
3208;DHT22;1616;52.394;9.756;2023-09-18T01:39:48;20.50;99.90
3208;DHT22;1616;52.394;9.756;2023-09-18T01:42:14;20.50;99.90
3208;DHT22;1616;52.394;9.756;2023-09-18T01:44:41;20.60;99.90
3208;DHT22;1616;52.394;9.756;2023-09-18T01:47:09;20.60;99.90
3208;DHT22;1616;52.394;9.756;2023-09-18T01:49:37;20.60;99.90
3208;DHT22;1616;52.394;9.756;2023-09-18T01:52:05;20.60;99.90
3208;DHT22;1616;52.394;9.756;2023-09-18T01:54:31;20.60;99.90
3208;DHT22;1616;52.394;9.756;2023-09-18T01:56:57;20.50;99.90
3208;DHT22;1616;52.394;9.756;2023-09-18T01:59:23;20.40;99.90
3208;DHT22;1616;52.394;9.756;2023-09-18T02:01:50;20.40;99.90
3208;DHT22;1616;52.394;9.756;2023-09-18T02:04:16;20.30;99.90
3208;DHT22;1616;52.394;9.756;2023-09-18T02:06:43;20.30;99.90
3208;DHT22;1616;52.394;9.756;2023-09-18T02:09:09;20.30;99.90
3208;DHT22;1616;52.394;9.756;2023-09-18T02:11:44;20.20;99.90
3208;DHT22;1616;52.394;9.756;2023-09-18T02:14:10;20.20;99.90
3208;DHT22;1616;52.394;9.756;2023-09-18T02:16:41;20.10;99.90
3208;DHT22;1616;52.394;9.756;2023-09-18T02:19:08;20.10;99.90
3208;DHT22;1616;52.394;9.756;2023-09-18T02:21:34;20.10;99.90
3208;DHT22;1616;52.394;9.756;2023-09-18T02:24:00;20.10;99.90
3208;DHT22;1616;52.394;9.756;2023-09-18T02:26:27;20.00;99.90
3208;DHT22;1616;52.394;9.756;2023-09-18T02:28:54;20.00;99.90
3208;DHT22;1616;52.394;9.756;2023-09-18T02:31:20;19.90;99.90
3208;DHT22;1616;52.394;9.756;2023-09-18T02:33:46;19.90;99.90
3208;DHT22;1616;52.394;9.756;2023-09-18T02:36:13;19.80;99.90
3208;DHT22;1616;52.394;9.756;2023-09-18T02:38:39;19.80;99.90
3208;DHT22;1616;52.394;9.756;2023-09-18T02:41:04;19.70;99.90
3208;DHT22;1616;52.394;9.756;2023-09-18T02:43:30;19.70;99.90
3208;DHT22;1616;52.394;9.756;2023-09-18T02:45:55;19.70;99.90
3208;DHT22;1616;52.394;9.756;2023-09-18T02:48:21;19.70;99.90
3208;DHT22;1616;52.394;9.756;2023-09-18T02:50:47;19.70;99.90
3208;DHT22;1616;52.394;9.756;2023-09-18T02:53:20;19.70;99.90
3208;DHT22;1616;52.394;9.756;2023-09-18T02:55:48;19.70;99.90
3208;DHT22;1616;52.394;9.756;2023-09-18T02:58:14;19.70;99.90
3208;DHT22;1616;52.394;9.756;2023-09-18T03:00:43;19.60;99.90
3208;DHT22;1616;52.394;9.756;2023-09-18T03:03:10;19.70;99.90
3208;DHT22;1616;52.394;9.756;2023-09-18T03:05:36;19.70;99.90
3208;DHT22;1616;52.394;9.756;2023-09-18T03:08:02;19.70;99.90
3208;DHT22;1616;52.394;9.756;2023-09-18T03:10:32;19.70;99.90
3208;DHT22;1616;52.394;9.756;2023-09-18T03:12:58;19.70;99.90
3208;DHT22;1616;52.394;9.756;2023-09-18T03:15:23;19.70;99.90
3208;DHT22;1616;52.394;9.756;2023-09-18T03:17:50;19.70;99.90
3208;DHT22;1616;52.394;9.756;2023-09-18T03:20:16;19.70;99.90
3208;DHT22;1616;52.394;9.756;2023-09-18T03:22:41;19.80;99.90
3208;DHT22;1616;52.394;9.756;2023-09-18T03:25:07;19.80;99.90
3208;DHT22;1616;52.394;9.756;2023-09-18T03:27:33;19.90;99.90
3208;DHT22;1616;52.394;9.756;2023-09-18T03:29:59;19.90;99.90
3208;DHT22;1616;52.394;9.756;2023-09-18T03:32:25;19.90;99.90
3208;DHT22;1616;52.394;9.756;2023-09-18T03:34:51;19.90;99.90
3208;DHT22;1616;52.394;9.756;2023-09-18T03:37:17;19.90;99.90
3208;DHT22;1616;52.394;9.756;2023-09-18T03:39:43;19.90;99.90
3208;DHT22;1616;52.394;9.756;2023-09-18T03:42:09;19.90;99.90
3208;DHT22;1616;52.394;9.756;2023-09-18T03:44:35;19.90;99.90
3208;DHT22;1616;52.394;9.756;2023-09-18T03:47:01;19.90;99.90
3208;DHT22;1616;52.394;9.756;2023-09-18T03:49:27;19.90;99.90
3208;DHT22;1616;52.394;9.756;2023-09-18T03:51:53;19.90;99.90
3208;DHT22;1616;52.394;9.756;2023-09-18T03:54:19;20.00;99.90
3208;DHT22;1616;52.394;9.756;2023-09-18T03:56:44;20.00;99.90
3208;DHT22;1616;52.394;9.756;2023-09-18T03:59:12;19.90;99.90
3208;DHT22;1616;52.394;9.756;2023-09-18T04:01:37;19.90;99.90
3208;DHT22;1616;52.394;9.756;2023-09-18T04:04:03;19.90;99.90
3208;DHT22;1616;52.394;9.756;2023-09-18T04:06:44;20.00;99.90
3208;DHT22;1616;52.394;9.756;2023-09-18T04:09:11;19.90;99.90
3208;DHT22;1616;52.394;9.756;2023-09-18T04:11:37;19.90;99.90
3208;DHT22;1616;52.394;9.756;2023-09-18T04:14:03;19.90;99.90
3208;DHT22;1616;52.394;9.756;2023-09-18T04:16:29;19.90;99.90
3208;DHT22;1616;52.394;9.756;2023-09-18T04:19:01;19.90;99.90
3208;DHT22;1616;52.394;9.756;2023-09-18T04:21:27;19.90;99.90
3208;DHT22;1616;52.394;9.756;2023-09-18T04:23:55;19.90;99.90
3208;DHT22;1616;52.394;9.756;2023-09-18T04:26:24;19.90;99.90
3208;DHT22;1616;52.394;9.756;2023-09-18T04:28:49;19.90;99.90
3208;DHT22;1616;52.394;9.756;2023-09-18T04:31:15;19.90;99.90
3208;DHT22;1616;52.394;9.756;2023-09-18T04:33:41;19.90;99.90
3208;DHT22;1616;52.394;9.756;2023-09-18T04:36:07;19.90;99.90
3208;DHT22;1616;52.394;9.756;2023-09-18T04:38:33;19.90;99.90
3208;DHT22;1616;52.394;9.756;2023-09-18T04:40:59;19.90;99.90
3208;DHT22;1616;52.394;9.756;2023-09-18T04:43:25;19.80;99.90
3208;DHT22;1616;52.394;9.756;2023-09-18T04:45:51;19.80;99.90
3208;DHT22;1616;52.394;9.756;2023-09-18T04:48:17;19.70;99.90
3208;DHT22;1616;52.394;9.756;2023-09-18T04:50:43;19.70;99.90
3208;DHT22;1616;52.394;9.756;2023-09-18T04:53:09;19.70;99.90
3208;DHT22;1616;52.394;9.756;2023-09-18T04:55:35;19.70;99.90
3208;DHT22;1616;52.394;9.756;2023-09-18T04:58:00;19.70;99.90
3208;DHT22;1616;52.394;9.756;2023-09-18T05:00:26;19.70;99.90
3208;DHT22;1616;52.394;9.756;2023-09-18T05:02:54;19.70;99.90
3208;DHT22;1616;52.394;9.756;2023-09-18T05:05:20;19.80;99.90
3208;DHT22;1616;52.394;9.756;2023-09-18T05:07:46;19.80;99.90
3208;DHT22;1616;52.394;9.756;2023-09-18T05:10:12;19.70;99.90
3208;DHT22;1616;52.394;9.756;2023-09-18T05:12:39;19.70;99.90
3208;DHT22;1616;52.394;9.756;2023-09-18T05:15:05;19.70;99.90
3208;DHT22;1616;52.394;9.756;2023-09-18T05:17:47;19.70;99.90
3208;DHT22;1616;52.394;9.756;2023-09-18T05:20:18;19.60;99.90
3208;DHT22;1616;52.394;9.756;2023-09-18T05:22:44;19.60;99.90
3208;DHT22;1616;52.394;9.756;2023-09-18T05:25:11;19.60;99.90
3208;DHT22;1616;52.394;9.756;2023-09-18T05:27:37;19.60;99.90
3208;DHT22;1616;52.394;9.756;2023-09-18T05:30:15;19.70;99.90
3208;DHT22;1616;52.394;9.756;2023-09-18T05:32:42;19.80;99.90
3208;DHT22;1616;52.394;9.756;2023-09-18T05:35:09;19.90;99.90
3208;DHT22;1616;52.394;9.756;2023-09-18T05:37:39;20.00;99.90
3208;DHT22;1616;52.394;9.756;2023-09-18T05:40:06;20.10;99.90
3208;DHT22;1616;52.394;9.756;2023-09-18T05:42:35;20.20;99.90
3208;DHT22;1616;52.394;9.756;2023-09-18T05:45:02;20.30;99.90
3208;DHT22;1616;52.394;9.756;2023-09-18T05:47:32;20.30;99.90
3208;DHT22;1616;52.394;9.756;2023-09-18T05:49:58;20.40;99.90
3208;DHT22;1616;52.394;9.756;2023-09-18T05:52:25;20.50;99.90
3208;DHT22;1616;52.394;9.756;2023-09-18T05:54:51;20.50;99.90
3208;DHT22;1616;52.394;9.756;2023-09-18T05:57:17;20.50;99.90
3208;DHT22;1616;52.394;9.756;2023-09-18T05:59:43;20.60;99.90
3208;DHT22;1616;52.394;9.756;2023-09-18T06:02:11;20.60;99.90
3208;DHT22;1616;52.394;9.756;2023-09-18T06:04:36;20.70;99.90
3208;DHT22;1616;52.394;9.756;2023-09-18T06:07:05;20.80;99.90
3208;DHT22;1616;52.394;9.756;2023-09-18T06:09:31;20.90;99.90
3208;DHT22;1616;52.394;9.756;2023-09-18T06:11:56;21.00;99.90
3208;DHT22;1616;52.394;9.756;2023-09-18T06:14:22;21.00;99.90
3208;DHT22;1616;52.394;9.756;2023-09-18T06:16:48;21.10;99.90
3208;DHT22;1616;52.394;9.756;2023-09-18T06:19:15;21.10;99.90
3208;DHT22;1616;52.394;9.756;2023-09-18T06:21:43;21.10;99.90
3208;DHT22;1616;52.394;9.756;2023-09-18T06:24:09;21.10;99.90
3208;DHT22;1616;52.394;9.756;2023-09-18T06:26:35;21.10;99.90
3208;DHT22;1616;52.394;9.756;2023-09-18T06:29:02;21.20;99.90
3208;DHT22;1616;52.394;9.756;2023-09-18T06:31:28;21.30;99.90
3208;DHT22;1616;52.394;9.756;2023-09-18T06:33:54;21.30;99.90
3208;DHT22;1616;52.394;9.756;2023-09-18T06:36:20;21.30;99.90
3208;DHT22;1616;52.394;9.756;2023-09-18T06:38:46;21.40;99.90
3208;DHT22;1616;52.394;9.756;2023-09-18T06:41:11;21.40;99.90
3208;DHT22;1616;52.394;9.756;2023-09-18T06:43:37;21.50;99.90
3208;DHT22;1616;52.394;9.756;2023-09-18T06:46:03;21.50;99.90
3208;DHT22;1616;52.394;9.756;2023-09-18T06:48:29;21.60;99.90
3208;DHT22;1616;52.394;9.756;2023-09-18T06:51:00;21.60;99.90
3208;DHT22;1616;52.394;9.756;2023-09-18T06:53:26;21.60;99.90
3208;DHT22;1616;52.394;9.756;2023-09-18T06:55:53;21.60;99.90
3208;DHT22;1616;52.394;9.756;2023-09-18T06:58:19;21.60;99.90
3208;DHT22;1616;52.394;9.756;2023-09-18T07:00:45;21.70;99.90
3208;DHT22;1616;52.394;9.756;2023-09-18T07:03:11;21.70;99.90
3208;DHT22;1616;52.394;9.756;2023-09-18T07:05:37;21.70;99.90
3208;DHT22;1616;52.394;9.756;2023-09-18T07:08:03;21.80;99.90
3208;DHT22;1616;52.394;9.756;2023-09-18T07:10:31;21.90;99.90
3208;DHT22;1616;52.394;9.756;2023-09-18T07:12:58;21.90;99.90
3208;DHT22;1616;52.394;9.756;2023-09-18T07:15:24;21.90;99.90
3208;DHT22;1616;52.394;9.756;2023-09-18T07:17:50;21.90;99.90
3208;DHT22;1616;52.394;9.756;2023-09-18T07:20:15;21.90;99.90
3208;DHT22;1616;52.394;9.756;2023-09-18T07:22:45;22.00;99.90
3208;DHT22;1616;52.394;9.756;2023-09-18T07:25:12;22.00;99.90
3208;DHT22;1616;52.394;9.756;2023-09-18T07:27:37;22.10;99.90
3208;DHT22;1616;52.394;9.756;2023-09-18T07:30:05;22.10;99.90
3208;DHT22;1616;52.394;9.756;2023-09-18T07:32:31;22.20;99.90
3208;DHT22;1616;52.394;9.756;2023-09-18T07:34:57;22.20;99.90
3208;DHT22;1616;52.394;9.756;2023-09-18T07:37:23;22.30;99.90
3208;DHT22;1616;52.394;9.756;2023-09-18T07:39:49;22.40;99.90
3208;DHT22;1616;52.394;9.756;2023-09-18T07:42:15;22.60;99.90
3208;DHT22;1616;52.394;9.756;2023-09-18T07:44:40;22.60;99.90
3208;DHT22;1616;52.394;9.756;2023-09-18T07:47:06;22.70;99.90
3208;DHT22;1616;52.394;9.756;2023-09-18T07:49:31;22.80;99.90
3208;DHT22;1616;52.394;9.756;2023-09-18T07:51:57;23.00;99.90
3208;DHT22;1616;52.394;9.756;2023-09-18T07:54:23;23.10;99.90
3208;DHT22;1616;52.394;9.756;2023-09-18T07:56:48;23.20;99.90
3208;DHT22;1616;52.394;9.756;2023-09-18T07:59:14;23.40;99.90
3208;DHT22;1616;52.394;9.756;2023-09-18T08:01:41;23.60;99.90
3208;DHT22;1616;52.394;9.756;2023-09-18T08:04:06;23.90;99.90
3208;DHT22;1616;52.394;9.756;2023-09-18T08:06:32;24.30;99.90
3208;DHT22;1616;52.394;9.756;2023-09-18T08:09:00;24.50;99.90
3208;DHT22;1616;52.394;9.756;2023-09-18T08:11:26;24.70;99.90
3208;DHT22;1616;52.394;9.756;2023-09-18T08:13:51;24.70;99.90
3208;DHT22;1616;52.394;9.756;2023-09-18T08:16:17;24.90;99.90
3208;DHT22;1616;52.394;9.756;2023-09-18T08:18:43;25.10;99.90
3208;DHT22;1616;52.394;9.756;2023-09-18T08:21:09;25.40;99.90
3208;DHT22;1616;52.394;9.756;2023-09-18T08:23:35;25.60;99.90
3208;DHT22;1616;52.394;9.756;2023-09-18T08:26:02;25.80;99.90
3208;DHT22;1616;52.394;9.756;2023-09-18T08:28:29;26.10;99.90
3208;DHT22;1616;52.394;9.756;2023-09-18T08:30:55;26.30;99.90
3208;DHT22;1616;52.394;9.756;2023-09-18T08:33:21;26.40;99.90
3208;DHT22;1616;52.394;9.756;2023-09-18T08:35:46;26.30;99.90
3208;DHT22;1616;52.394;9.756;2023-09-18T08:38:14;26.20;99.90
3208;DHT22;1616;52.394;9.756;2023-09-18T08:40:41;26.10;99.90
3208;DHT22;1616;52.394;9.756;2023-09-18T08:43:07;26.10;99.90
3208;DHT22;1616;52.394;9.756;2023-09-18T08:45:55;25.90;99.90
3208;DHT22;1616;52.394;9.756;2023-09-18T08:48:28;25.90;99.90
3208;DHT22;1616;52.394;9.756;2023-09-18T08:51:02;26.00;99.90
3208;DHT22;1616;52.394;9.756;2023-09-18T08:53:31;26.10;99.90
3208;DHT22;1616;52.394;9.756;2023-09-18T08:55:59;26.10;99.90
3208;DHT22;1616;52.394;9.756;2023-09-18T08:58:37;26.20;99.90
3208;DHT22;1616;52.394;9.756;2023-09-18T09:01:06;26.20;99.90
3208;DHT22;1616;52.394;9.756;2023-09-18T09:03:42;26.20;99.90
3208;DHT22;1616;52.394;9.756;2023-09-18T09:06:09;26.20;99.90
3208;DHT22;1616;52.394;9.756;2023-09-18T09:08:35;26.20;99.90
3208;DHT22;1616;52.394;9.756;2023-09-18T09:11:02;26.20;99.90
3208;DHT22;1616;52.394;9.756;2023-09-18T09:13:28;26.20;99.90
3208;DHT22;1616;52.394;9.756;2023-09-18T09:15:56;26.30;99.90
3208;DHT22;1616;52.394;9.756;2023-09-18T09:18:27;26.40;99.90
3208;DHT22;1616;52.394;9.756;2023-09-18T09:20:57;26.50;99.90
3208;DHT22;1616;52.394;9.756;2023-09-18T09:23:28;26.60;99.90
3208;DHT22;1616;52.394;9.756;2023-09-18T09:26:11;26.60;99.90
3208;DHT22;1616;52.394;9.756;2023-09-18T09:28:38;26.60;99.90
3208;DHT22;1616;52.394;9.756;2023-09-18T09:31:04;26.50;99.90
3208;DHT22;1616;52.394;9.756;2023-09-18T09:33:30;26.40;99.90
3208;DHT22;1616;52.394;9.756;2023-09-18T09:35:56;26.40;99.90
3208;DHT22;1616;52.394;9.756;2023-09-18T09:38:32;26.30;99.90
3208;DHT22;1616;52.394;9.756;2023-09-18T09:41:00;26.30;99.90
3208;DHT22;1616;52.394;9.756;2023-09-18T09:43:27;26.20;99.90
3208;DHT22;1616;52.394;9.756;2023-09-18T09:46:00;26.20;99.90
3208;DHT22;1616;52.394;9.756;2023-09-18T09:48:26;26.20;99.90
3208;DHT22;1616;52.394;9.756;2023-09-18T09:50:52;26.20;99.90
3208;DHT22;1616;52.394;9.756;2023-09-18T09:53:43;26.20;99.90
3208;DHT22;1616;52.394;9.756;2023-09-18T09:56:10;26.10;99.90
3208;DHT22;1616;52.394;9.756;2023-09-18T09:58:36;26.00;99.90
3208;DHT22;1616;52.394;9.756;2023-09-18T10:01:03;25.90;99.90
3208;DHT22;1616;52.394;9.756;2023-09-18T10:03:32;25.80;99.90
3208;DHT22;1616;52.394;9.756;2023-09-18T10:05:58;25.80;99.90
3208;DHT22;1616;52.394;9.756;2023-09-18T10:08:26;25.80;99.90
3208;DHT22;1616;52.394;9.756;2023-09-18T10:11:00;25.70;99.90
3208;DHT22;1616;52.394;9.756;2023-09-18T10:16:13;25.70;99.90
3208;DHT22;1616;52.394;9.756;2023-09-18T10:19:28;25.70;99.90
3208;DHT22;1616;52.394;9.756;2023-09-18T10:22:12;25.80;99.90
3208;DHT22;1616;52.394;9.756;2023-09-18T10:24:46;25.90;99.90
3208;DHT22;1616;52.394;9.756;2023-09-18T10:27:13;25.90;99.90
3208;DHT22;1616;52.394;9.756;2023-09-18T10:29:41;25.90;99.90
3208;DHT22;1616;52.394;9.756;2023-09-18T10:32:07;25.90;99.90
3208;DHT22;1616;52.394;9.756;2023-09-18T10:34:34;25.90;99.90
3208;DHT22;1616;52.394;9.756;2023-09-18T10:37:02;25.90;99.90
3208;DHT22;1616;52.394;9.756;2023-09-18T10:39:34;25.90;99.90
3208;DHT22;1616;52.394;9.756;2023-09-18T10:42:02;25.90;99.90
3208;DHT22;1616;52.394;9.756;2023-09-18T10:44:29;26.00;99.90
3208;DHT22;1616;52.394;9.756;2023-09-18T10:46:57;26.10;99.90
3208;DHT22;1616;52.394;9.756;2023-09-18T10:49:24;26.20;99.90
3208;DHT22;1616;52.394;9.756;2023-09-18T10:51:54;26.30;99.90
3208;DHT22;1616;52.394;9.756;2023-09-18T10:54:22;26.40;99.90
3208;DHT22;1616;52.394;9.756;2023-09-18T10:56:48;26.40;99.90
3208;DHT22;1616;52.394;9.756;2023-09-18T10:59:15;26.50;99.90
3208;DHT22;1616;52.394;9.756;2023-09-18T11:01:44;26.50;99.90
3208;DHT22;1616;52.394;9.756;2023-09-18T11:04:11;26.40;99.90
3208;DHT22;1616;52.394;9.756;2023-09-18T11:09:25;26.30;99.90
3208;DHT22;1616;52.394;9.756;2023-09-18T11:12:03;26.40;99.90
3208;DHT22;1616;52.394;9.756;2023-09-18T11:17:40;26.30;99.90
3208;DHT22;1616;52.394;9.756;2023-09-18T11:22:35;26.20;99.90
3208;DHT22;1616;52.394;9.756;2023-09-18T11:25:37;26.20;99.90
3208;DHT22;1616;52.394;9.756;2023-09-18T11:28:04;26.20;99.90
3208;DHT22;1616;52.394;9.756;2023-09-18T11:30:35;26.30;99.90
3208;DHT22;1616;52.394;9.756;2023-09-18T11:33:05;26.30;99.90
3208;DHT22;1616;52.394;9.756;2023-09-18T11:35:32;26.30;99.90
3208;DHT22;1616;52.394;9.756;2023-09-18T11:38:06;26.30;99.90
3208;DHT22;1616;52.394;9.756;2023-09-18T11:40:34;26.50;99.90
3208;DHT22;1616;52.394;9.756;2023-09-18T11:43:19;26.70;99.90
3208;DHT22;1616;52.394;9.756;2023-09-18T11:45:49;26.90;99.90
3208;DHT22;1616;52.394;9.756;2023-09-18T11:48:16;27.10;99.90
3208;DHT22;1616;52.394;9.756;2023-09-18T11:50:42;27.20;99.90
3208;DHT22;1616;52.394;9.756;2023-09-18T11:53:10;27.10;99.90
3208;DHT22;1616;52.394;9.756;2023-09-18T11:55:39;27.00;99.90
3208;DHT22;1616;52.394;9.756;2023-09-18T11:58:05;26.90;99.90
3208;DHT22;1616;52.394;9.756;2023-09-18T12:00:31;26.80;99.90
3208;DHT22;1616;52.394;9.756;2023-09-18T12:02:57;26.70;99.90
3208;DHT22;1616;52.394;9.756;2023-09-18T12:05:26;26.60;99.90
3208;DHT22;1616;52.394;9.756;2023-09-18T12:07:52;26.50;99.90
3208;DHT22;1616;52.394;9.756;2023-09-18T12:10:20;26.50;99.90
3208;DHT22;1616;52.394;9.756;2023-09-18T12:12:49;26.40;99.90
3208;DHT22;1616;52.394;9.756;2023-09-18T12:15:17;26.30;99.90
3208;DHT22;1616;52.394;9.756;2023-09-18T12:17:44;26.30;99.90
3208;DHT22;1616;52.394;9.756;2023-09-18T12:20:17;26.20;99.90
3208;DHT22;1616;52.394;9.756;2023-09-18T12:22:49;26.20;99.90
3208;DHT22;1616;52.394;9.756;2023-09-18T12:25:16;26.30;99.90
3208;DHT22;1616;52.394;9.756;2023-09-18T12:27:44;26.40;99.90
3208;DHT22;1616;52.394;9.756;2023-09-18T12:30:11;26.60;99.90
3208;DHT22;1616;52.394;9.756;2023-09-18T12:32:38;26.60;99.90
3208;DHT22;1616;52.394;9.756;2023-09-18T12:35:06;26.80;99.90
3208;DHT22;1616;52.394;9.756;2023-09-18T12:37:40;26.90;99.90
3208;DHT22;1616;52.394;9.756;2023-09-18T12:40:29;26.90;99.90
3208;DHT22;1616;52.394;9.756;2023-09-18T12:42:55;27.00;99.90
3208;DHT22;1616;52.394;9.756;2023-09-18T12:45:22;27.00;99.90
3208;DHT22;1616;52.394;9.756;2023-09-18T12:47:48;27.10;99.90
3208;DHT22;1616;52.394;9.756;2023-09-18T12:50:13;27.10;99.90
3208;DHT22;1616;52.394;9.756;2023-09-18T12:52:40;27.10;99.90
3208;DHT22;1616;52.394;9.756;2023-09-18T12:55:07;27.00;99.90
3208;DHT22;1616;52.394;9.756;2023-09-18T12:57:33;27.10;99.90
3208;DHT22;1616;52.394;9.756;2023-09-18T12:59:59;26.90;99.90
3208;DHT22;1616;52.394;9.756;2023-09-18T13:02:24;26.90;99.90
3208;DHT22;1616;52.394;9.756;2023-09-18T13:04:57;26.80;99.90
3208;DHT22;1616;52.394;9.756;2023-09-18T13:07:24;26.60;99.90
3208;DHT22;1616;52.394;9.756;2023-09-18T13:10:08;26.50;99.90
3208;DHT22;1616;52.394;9.756;2023-09-18T13:12:49;26.40;99.90
3208;DHT22;1616;52.394;9.756;2023-09-18T13:15:34;26.40;99.90
3208;DHT22;1616;52.394;9.756;2023-09-18T13:18:08;26.40;99.90
3208;DHT22;1616;52.394;9.756;2023-09-18T13:20:34;26.30;99.90
3208;DHT22;1616;52.394;9.756;2023-09-18T13:23:00;26.20;99.90
3208;DHT22;1616;52.394;9.756;2023-09-18T13:25:32;26.10;99.90
3208;DHT22;1616;52.394;9.756;2023-09-18T13:28:00;26.00;99.90
3208;DHT22;1616;52.394;9.756;2023-09-18T13:30:26;25.90;99.90
3208;DHT22;1616;52.394;9.756;2023-09-18T13:33:07;25.90;99.90
3208;DHT22;1616;52.394;9.756;2023-09-18T13:35:35;25.80;99.90
3208;DHT22;1616;52.394;9.756;2023-09-18T13:38:01;25.80;99.90
3208;DHT22;1616;52.394;9.756;2023-09-18T13:40:30;25.80;99.90
3208;DHT22;1616;52.394;9.756;2023-09-18T13:42:55;25.70;99.90
3208;DHT22;1616;52.394;9.756;2023-09-18T13:45:21;25.80;99.90
3208;DHT22;1616;52.394;9.756;2023-09-18T13:47:47;25.80;99.90
3208;DHT22;1616;52.394;9.756;2023-09-18T13:50:15;25.80;99.90
3208;DHT22;1616;52.394;9.756;2023-09-18T13:52:41;25.80;99.90
3208;DHT22;1616;52.394;9.756;2023-09-18T13:55:07;25.90;99.90
3208;DHT22;1616;52.394;9.756;2023-09-18T13:57:37;26.00;99.90
3208;DHT22;1616;52.394;9.756;2023-09-18T14:00:04;26.00;99.90
3208;DHT22;1616;52.394;9.756;2023-09-18T14:02:32;26.10;99.90
3208;DHT22;1616;52.394;9.756;2023-09-18T14:04:58;26.10;99.90
3208;DHT22;1616;52.394;9.756;2023-09-18T14:07:24;26.10;99.90
3208;DHT22;1616;52.394;9.756;2023-09-18T14:09:50;26.10;99.90
3208;DHT22;1616;52.394;9.756;2023-09-18T14:12:16;26.00;99.90
3208;DHT22;1616;52.394;9.756;2023-09-18T14:14:42;26.10;99.90
3208;DHT22;1616;52.394;9.756;2023-09-18T14:17:12;26.00;99.90
3208;DHT22;1616;52.394;9.756;2023-09-18T14:19:38;26.00;99.90
3208;DHT22;1616;52.394;9.756;2023-09-18T14:22:05;26.00;99.90
3208;DHT22;1616;52.394;9.756;2023-09-18T14:24:31;26.00;99.90
3208;DHT22;1616;52.394;9.756;2023-09-18T14:27:00;25.90;99.90
3208;DHT22;1616;52.394;9.756;2023-09-18T14:29:26;25.80;99.90
3208;DHT22;1616;52.394;9.756;2023-09-18T14:31:52;25.80;99.90
3208;DHT22;1616;52.394;9.756;2023-09-18T14:34:18;25.80;99.90
3208;DHT22;1616;52.394;9.756;2023-09-18T14:36:44;25.70;99.90
3208;DHT22;1616;52.394;9.756;2023-09-18T14:39:10;25.70;99.90
3208;DHT22;1616;52.394;9.756;2023-09-18T14:41:37;25.60;99.90
3208;DHT22;1616;52.394;9.756;2023-09-18T14:44:09;25.60;99.90
3208;DHT22;1616;52.394;9.756;2023-09-18T14:46:36;25.50;99.90
3208;DHT22;1616;52.394;9.756;2023-09-18T14:49:06;25.50;99.90
3208;DHT22;1616;52.394;9.756;2023-09-18T14:51:34;25.40;99.90
3208;DHT22;1616;52.394;9.756;2023-09-18T14:54:00;25.40;99.90
3208;DHT22;1616;52.394;9.756;2023-09-18T14:56:26;25.30;99.90
3208;DHT22;1616;52.394;9.756;2023-09-18T14:58:52;25.30;99.90
3208;DHT22;1616;52.394;9.756;2023-09-18T15:01:18;25.30;99.90
3208;DHT22;1616;52.394;9.756;2023-09-18T15:03:44;25.20;99.90
3208;DHT22;1616;52.394;9.756;2023-09-18T15:06:10;25.20;99.90
3208;DHT22;1616;52.394;9.756;2023-09-18T15:08:36;25.20;99.90
3208;DHT22;1616;52.394;9.756;2023-09-18T15:11:02;25.10;99.90
3208;DHT22;1616;52.394;9.756;2023-09-18T15:13:32;25.10;99.90
3208;DHT22;1616;52.394;9.756;2023-09-18T15:15:58;25.10;99.90
3208;DHT22;1616;52.394;9.756;2023-09-18T15:18:27;25.00;99.90
3208;DHT22;1616;52.394;9.756;2023-09-18T15:20:53;25.00;99.90
3208;DHT22;1616;52.394;9.756;2023-09-18T15:23:22;25.00;99.90
3208;DHT22;1616;52.394;9.756;2023-09-18T15:25:49;25.00;99.90
3208;DHT22;1616;52.394;9.756;2023-09-18T15:28:16;25.00;99.90
3208;DHT22;1616;52.394;9.756;2023-09-18T15:30:43;24.90;99.90
3208;DHT22;1616;52.394;9.756;2023-09-18T15:33:09;24.90;99.90
3208;DHT22;1616;52.394;9.756;2023-09-18T15:35:35;24.90;99.90
3208;DHT22;1616;52.394;9.756;2023-09-18T15:38:02;24.90;99.90
3208;DHT22;1616;52.394;9.756;2023-09-18T15:40:28;24.90;99.90
3208;DHT22;1616;52.394;9.756;2023-09-18T15:42:54;25.00;99.90
3208;DHT22;1616;52.394;9.756;2023-09-18T15:45:23;25.00;99.90
3208;DHT22;1616;52.394;9.756;2023-09-18T15:47:49;25.00;99.90
3208;DHT22;1616;52.394;9.756;2023-09-18T15:50:16;25.00;99.90
3208;DHT22;1616;52.394;9.756;2023-09-18T15:52:42;25.00;99.90
3208;DHT22;1616;52.394;9.756;2023-09-18T15:55:08;25.00;99.90
3208;DHT22;1616;52.394;9.756;2023-09-18T15:57:36;25.00;99.90
3208;DHT22;1616;52.394;9.756;2023-09-18T16:00:04;24.90;99.90
3208;DHT22;1616;52.394;9.756;2023-09-18T16:02:30;24.80;99.90
3208;DHT22;1616;52.394;9.756;2023-09-18T16:04:57;24.80;99.90
3208;DHT22;1616;52.394;9.756;2023-09-18T16:07:23;24.70;99.90
3208;DHT22;1616;52.394;9.756;2023-09-18T16:09:49;24.70;99.90
3208;DHT22;1616;52.394;9.756;2023-09-18T16:12:15;24.70;99.90
3208;DHT22;1616;52.394;9.756;2023-09-18T16:14:41;24.70;99.90
3208;DHT22;1616;52.394;9.756;2023-09-18T16:17:07;24.60;99.90
3208;DHT22;1616;52.394;9.756;2023-09-18T16:19:33;24.60;99.90